sensor_id;sensor_type;location;lat;lon;timestamp;pressure;altitude;pressure_sealevel;temperature;humidity
55347;BME280;41218;55.700;38.270;2023-02-01T00:02:45;98593.13;;;0.45;72.23
55347;BME280;41218;55.700;38.270;2023-02-01T00:07:49;98581.19;;;0.37;72.12
55347;BME280;41218;55.700;38.270;2023-02-01T00:12:49;98578.78;;;0.36;71.84
55347;BME280;41218;55.700;38.270;2023-02-01T00:17:54;98593.44;;;0.44;72.04
55347;BME280;41218;55.700;38.270;2023-02-01T00:22:55;98581.31;;;0.41;72.32
55347;BME280;41218;55.700;38.270;2023-02-01T00:27:55;98584.50;;;0.43;72.53
55347;BME280;41218;55.700;38.270;2023-02-01T00:32:57;98578.75;;;0.45;72.26
55347;BME280;41218;55.700;38.270;2023-02-01T00:37:58;98579.38;;;0.42;72.19
55347;BME280;41218;55.700;38.270;2023-02-01T00:42:59;98585.75;;;0.46;72.33
55347;BME280;41218;55.700;38.270;2023-02-01T00:48:00;98574.03;;;0.33;72.29
55347;BME280;41218;55.700;38.270;2023-02-01T00:53:00;98595.97;;;0.49;72.13
55347;BME280;41218;55.700;38.270;2023-02-01T00:58:01;98587.00;;;0.48;72.51
55347;BME280;41218;55.700;38.270;2023-02-01T01:03:01;98596.78;;;0.49;72.39
55347;BME280;41218;55.700;38.270;2023-02-01T01:08:02;98595.16;;;0.48;72.16
55347;BME280;41218;55.700;38.270;2023-02-01T01:13:02;98580.50;;;0.40;72.31
55347;BME280;41218;55.700;38.270;2023-02-01T01:18:03;98587.69;;;0.45;72.13
55347;BME280;41218;55.700;38.270;2023-02-01T01:23:05;98599.50;;;0.49;72.08
55347;BME280;41218;55.700;38.270;2023-02-01T01:28:06;98605.38;;;0.51;72.41
55347;BME280;41218;55.700;38.270;2023-02-01T01:33:07;98603.00;;;0.50;72.12
55347;BME280;41218;55.700;38.270;2023-02-01T01:38:09;98606.50;;;0.50;72.29
55347;BME280;41218;55.700;38.270;2023-02-01T01:43:15;98613.88;;;0.50;72.46
55347;BME280;41218;55.700;38.270;2023-02-01T01:48:28;98607.97;;;0.48;72.32
55347;BME280;41218;55.700;38.270;2023-02-01T01:53:48;98600.50;;;0.45;72.21
55347;BME280;41218;55.700;38.270;2023-02-01T01:58:51;98598.56;;;0.45;72.43
55347;BME280;41218;55.700;38.270;2023-02-01T02:03:53;98601.88;;;0.51;72.17
55347;BME280;41218;55.700;38.270;2023-02-01T02:08:54;98602.66;;;0.51;72.32
55347;BME280;41218;55.700;38.270;2023-02-01T02:13:57;98597.88;;;0.48;72.27
55347;BME280;41218;55.700;38.270;2023-02-01T02:46:29;98629.06;;;0.51;72.56
55347;BME280;41218;55.700;38.270;2023-02-01T02:52:15;98622.03;;;0.50;72.38
55347;BME280;41218;55.700;38.270;2023-02-01T02:57:37;98622.25;;;0.45;71.95
55347;BME280;41218;55.700;38.270;2023-02-01T03:02:58;98630.97;;;0.50;72.15
55347;BME280;41218;55.700;38.270;2023-02-01T03:24:15;98635.34;;;0.43;72.07
55347;BME280;41218;55.700;38.270;2023-02-01T03:29:22;98631.34;;;0.40;72.29
55347;BME280;41218;55.700;38.270;2023-02-01T03:34:24;98638.53;;;0.45;72.35
55347;BME280;41218;55.700;38.270;2023-02-01T03:45:24;98637.72;;;0.44;72.43
55347;BME280;41218;55.700;38.270;2023-02-01T03:50:27;98634.53;;;0.42;72.36
55347;BME280;41218;55.700;38.270;2023-02-01T03:55:31;98637.72;;;0.44;72.41
55347;BME280;41218;55.700;38.270;2023-02-01T04:00:32;98644.00;;;0.45;72.32
55347;BME280;41218;55.700;38.270;2023-02-01T04:05:33;98642.06;;;0.45;72.03
55347;BME280;41218;55.700;38.270;2023-02-01T04:10:34;98646.09;;;0.39;72.14
55347;BME280;41218;55.700;38.270;2023-02-01T04:15:34;98646.75;;;0.36;72.17
55347;BME280;41218;55.700;38.270;2023-02-01T04:20:35;98653.44;;;0.38;72.35
55347;BME280;41218;55.700;38.270;2023-02-01T04:25:35;98665.44;;;0.37;72.02
55347;BME280;41218;55.700;38.270;2023-02-01T04:30:36;98675.19;;;0.38;72.44
55347;BME280;41218;55.700;38.270;2023-02-01T04:35:36;98685.88;;;0.44;72.08
55347;BME280;41218;55.700;38.270;2023-02-01T04:40:37;98674.06;;;0.39;72.30
55347;BME280;41218;55.700;38.270;2023-02-01T04:45:38;98689.84;;;0.46;72.43
55347;BME280;41218;55.700;38.270;2023-02-01T04:50:38;98696.13;;;0.38;72.39
55347;BME280;41218;55.700;38.270;2023-02-01T04:55:39;98698.53;;;0.39;72.29
55347;BME280;41218;55.700;38.270;2023-02-01T05:00:39;98709.88;;;0.42;72.13
55347;BME280;41218;55.700;38.270;2023-02-01T05:05:40;98714.06;;;0.39;72.24
55347;BME280;41218;55.700;38.270;2023-02-01T05:10:40;98716.78;;;0.39;72.43
55347;BME280;41218;55.700;38.270;2023-02-01T05:15:41;98716.16;;;0.33;72.45
55347;BME280;41218;55.700;38.270;2023-02-01T05:20:41;98715.00;;;0.34;72.39
55347;BME280;41218;55.700;38.270;2023-02-01T05:25:42;98716.78;;;0.39;72.06
55347;BME280;41218;55.700;38.270;2023-02-01T05:30:42;98720.75;;;0.42;72.36
55347;BME280;41218;55.700;38.270;2023-02-01T05:35:43;98719.97;;;0.41;72.27
55347;BME280;41218;55.700;38.270;2023-02-01T05:40:43;98731.94;;;0.40;72.23
55347;BME280;41218;55.700;38.270;2023-02-01T05:45:51;98731.16;;;0.39;72.40
55347;BME280;41218;55.700;38.270;2023-02-01T05:50:52;98722.53;;;0.37;72.29
55347;BME280;41218;55.700;38.270;2023-02-01T05:55:52;98730.69;;;0.37;72.52
55347;BME280;41218;55.700;38.270;2023-02-01T06:00:53;98725.56;;;0.36;72.47
55347;BME280;41218;55.700;38.270;2023-02-01T06:05:54;98744.44;;;0.41;72.36
55347;BME280;41218;55.700;38.270;2023-02-01T06:11:01;98746.31;;;0.40;72.57
55347;BME280;41218;55.700;38.270;2023-02-01T06:16:03;98750.97;;;0.40;72.44
55347;BME280;41218;55.700;38.270;2023-02-01T06:21:05;98741.88;;;0.36;72.50
55347;BME280;41218;55.700;38.270;2023-02-01T06:26:06;98744.59;;;0.36;72.50
55347;BME280;41218;55.700;38.270;2023-02-01T06:31:10;98756.09;;;0.42;72.63
55347;BME280;41218;55.700;38.270;2023-02-01T06:36:12;98765.34;;;0.49;72.82
55347;BME280;41218;55.700;38.270;2023-02-01T06:41:13;98760.38;;;0.51;72.56
55347;BME280;41218;55.700;38.270;2023-02-01T06:46:14;98772.66;;;0.57;72.46
55347;BME280;41218;55.700;38.270;2023-02-01T06:51:19;98761.94;;;0.52;72.54
55347;BME280;41218;55.700;38.270;2023-02-01T06:56:21;98775.06;;;0.59;72.50
55347;BME280;41218;55.700;38.270;2023-02-01T07:01:21;98769.47;;;0.55;72.11
55347;BME280;41218;55.700;38.270;2023-02-01T07:06:22;98780.16;;;0.60;72.20
55347;BME280;41218;55.700;38.270;2023-02-01T07:11:23;98784.00;;;0.59;72.43
55347;BME280;41218;55.700;38.270;2023-02-01T07:16:24;98789.72;;;0.67;72.48
55347;BME280;41218;55.700;38.270;2023-02-01T07:21:25;98796.75;;;0.68;72.26
55347;BME280;41218;55.700;38.270;2023-02-01T07:26:27;98776.47;;;0.65;72.29
55347;BME280;41218;55.700;38.270;2023-02-01T07:31:28;98786.66;;;0.68;72.26
55347;BME280;41218;55.700;38.270;2023-02-01T07:36:29;98790.47;;;0.76;72.51
55347;BME280;41218;55.700;38.270;2023-02-01T07:41:29;98788.22;;;0.78;72.29
55347;BME280;41218;55.700;38.270;2023-02-01T07:46:30;98779.91;;;0.74;72.03
55347;BME280;41218;55.700;38.270;2023-02-01T07:51:30;98788.84;;;0.84;71.96
55347;BME280;41218;55.700;38.270;2023-02-01T07:56:31;98790.91;;;0.87;71.91
55347;BME280;41218;55.700;38.270;2023-02-01T08:01:32;98795.53;;;0.86;71.70
55347;BME280;41218;55.700;38.270;2023-02-01T08:06:33;98798.09;;;0.91;71.87
55347;BME280;41218;55.700;38.270;2023-02-01T08:11:34;98797.28;;;0.91;71.87
55347;BME280;41218;55.700;38.270;2023-02-01T08:16:37;98787.38;;;0.86;71.63
55347;BME280;41218;55.700;38.270;2023-02-01T08:21:39;98785.91;;;0.89;72.03
55347;BME280;41218;55.700;38.270;2023-02-01T08:26:39;98792.78;;;0.95;71.89
55347;BME280;41218;55.700;38.270;2023-02-01T08:31:40;98779.63;;;0.97;71.76
55347;BME280;41218;55.700;38.270;2023-02-01T08:36:41;98786.81;;;1.02;71.64
55347;BME280;41218;55.700;38.270;2023-02-01T08:41:42;98783.63;;;0.99;71.30
55347;BME280;41218;55.700;38.270;2023-02-01T08:47:03;98778.19;;;0.99;71.61
55347;BME280;41218;55.700;38.270;2023-02-01T08:52:04;98780.91;;;0.99;71.51
55347;BME280;41218;55.700;38.270;2023-02-01T08:57:04;98777.25;;;0.95;71.50
55347;BME280;41218;55.700;38.270;2023-02-01T09:02:05;98785.38;;;1.04;71.54
55347;BME280;41218;55.700;38.270;2023-02-01T09:07:06;98775.47;;;0.99;71.33
55347;BME280;41218;55.700;38.270;2023-02-01T09:12:06;98775.59;;;1.03;71.09
55347;BME280;41218;55.700;38.270;2023-02-01T09:17:07;98744.50;;;0.83;71.20
55347;BME280;41218;55.700;38.270;2023-02-01T09:22:11;98780.38;;;1.06;71.32
55347;BME280;41218;55.700;38.270;2023-02-01T09:27:11;98768.03;;;1.09;71.17
55347;BME280;41218;55.700;38.270;2023-02-01T09:32:12;98780.00;;;1.16;71.13
55347;BME280;41218;55.700;38.270;2023-02-01T09:37:12;98777.75;;;1.18;71.06
55347;BME280;41218;55.700;38.270;2023-02-01T09:47:32;98770.69;;;1.17;70.91
55347;BME280;41218;55.700;38.270;2023-02-01T09:52:47;98773.88;;;1.19;70.62
55347;BME280;41218;55.700;38.270;2023-02-01T09:58:06;98766.16;;;1.22;70.80
55347;BME280;41218;55.700;38.270;2023-02-01T10:03:16;98754.16;;;1.23;70.70
55347;BME280;41218;55.700;38.270;2023-02-01T10:14:00;98761.19;;;1.24;70.38
55347;BME280;41218;55.700;38.270;2023-02-01T10:19:07;98761.53;;;1.22;70.64
55347;BME280;41218;55.700;38.270;2023-02-01T10:24:19;98749.38;;;1.19;70.41
55347;BME280;41218;55.700;38.270;2023-02-01T10:29:25;98755.09;;;1.27;70.68
55347;BME280;41218;55.700;38.270;2023-02-01T10:34:31;98754.16;;;1.23;70.57
55347;BME280;41218;55.700;38.270;2023-02-01T10:39:33;98749.06;;;1.21;70.49
55347;BME280;41218;55.700;38.270;2023-02-01T10:44:41;98755.44;;;1.25;70.66
55347;BME280;41218;55.700;38.270;2023-02-01T10:49:55;98754.56;;;1.33;70.45
55347;BME280;41218;55.700;38.270;2023-02-01T10:55:28;98756.16;;;1.34;70.19
55347;BME280;41218;55.700;38.270;2023-02-01T11:00:54;98758.22;;;1.37;70.26
55347;BME280;41218;55.700;38.270;2023-02-01T11:05:56;98754.03;;;1.40;70.42
55347;BME280;41218;55.700;38.270;2023-02-01T11:10:59;98755.84;;;1.36;70.43
55347;BME280;41218;55.700;38.270;2023-02-01T11:16:01;98751.66;;;1.38;70.44
55347;BME280;41218;55.700;38.270;2023-02-01T11:21:04;98747.31;;;1.37;69.94
55347;BME280;41218;55.700;38.270;2023-02-01T11:31:22;98757.09;;;1.38;70.09
55347;BME280;41218;55.700;38.270;2023-02-01T11:36:26;98763.19;;;1.35;70.00
55347;BME280;41218;55.700;38.270;2023-02-01T11:41:27;98766.59;;;1.32;70.24
55347;BME280;41218;55.700;38.270;2023-02-01T11:46:33;98760.00;;;1.33;70.11
55347;BME280;41218;55.700;38.270;2023-02-01T11:52:09;98770.91;;;1.33;69.65
55347;BME280;41218;55.700;38.270;2023-02-01T12:03:08;98773.41;;;1.17;69.72
55347;BME280;41218;55.700;38.270;2023-02-01T12:08:22;98782.72;;;1.16;69.98
55347;BME280;41218;55.700;38.270;2023-02-01T12:18:57;98784.50;;;1.12;69.79
55347;BME280;41218;55.700;38.270;2023-02-01T12:46:21;98796.94;;;0.92;69.83
55347;BME280;41218;55.700;38.270;2023-02-01T12:51:28;98811.81;;;0.95;70.09
55347;BME280;41218;55.700;38.270;2023-02-01T13:01:48;98810.63;;;0.84;69.84
55347;BME280;41218;55.700;38.270;2023-02-01T13:07:08;98809.84;;;0.74;69.99
55347;BME280;41218;55.700;38.270;2023-02-01T13:12:16;98817.53;;;0.72;70.13
55347;BME280;41218;55.700;38.270;2023-02-01T13:17:23;98812.75;;;0.69;70.27
55347;BME280;41218;55.700;38.270;2023-02-01T13:22:37;98820.09;;;0.69;69.91
55347;BME280;41218;55.700;38.270;2023-02-01T13:27:41;98820.63;;;0.62;70.41
55347;BME280;41218;55.700;38.270;2023-02-01T13:33:43;98829.25;;;0.64;70.19
55347;BME280;41218;55.700;38.270;2023-02-01T13:43:27;98824.66;;;0.56;70.32
55347;BME280;41218;55.700;38.270;2023-02-01T13:48:41;98818.56;;;0.50;70.15
55347;BME280;41218;55.700;38.270;2023-02-01T13:53:48;98826.63;;;0.47;69.90
55347;BME280;41218;55.700;38.270;2023-02-01T13:58:50;98827.72;;;0.46;70.31
55347;BME280;41218;55.700;38.270;2023-02-01T14:04:05;98841.94;;;0.43;70.30
55347;BME280;41218;55.700;38.270;2023-02-01T14:24:31;98843.59;;;0.35;70.34
55347;BME280;41218;55.700;38.270;2023-02-01T14:29:35;98839.75;;;0.36;70.20
55347;BME280;41218;55.700;38.270;2023-02-01T14:34:58;98850.59;;;0.36;70.26
55347;BME280;41218;55.700;38.270;2023-02-01T14:50:40;98856.06;;;0.27;70.35
55347;BME280;41218;55.700;38.270;2023-02-01T15:01:01;98861.19;;;0.20;70.62
55347;BME280;41218;55.700;38.270;2023-02-01T15:06:03;98858.47;;;0.20;70.35
55347;BME280;41218;55.700;38.270;2023-02-01T15:11:14;98854.97;;;0.19;70.08
55347;BME280;41218;55.700;38.270;2023-02-01T15:16:16;98830.72;;;-0.03;70.33
55347;BME280;41218;55.700;38.270;2023-02-01T15:21:24;98869.06;;;0.13;70.69
55347;BME280;41218;55.700;38.270;2023-02-01T15:26:30;98865.88;;;0.11;70.55
55347;BME280;41218;55.700;38.270;2023-02-01T15:31:37;98865.38;;;0.09;70.16
55347;BME280;41218;55.700;38.270;2023-02-01T15:36:38;98851.50;;;-0.07;70.06
55347;BME280;41218;55.700;38.270;2023-02-01T15:41:39;98871.94;;;-0.01;70.48
55347;BME280;41218;55.700;38.270;2023-02-01T15:46:45;98883.13;;;-0.03;70.65
55347;BME280;41218;55.700;38.270;2023-02-01T15:51:47;98874.19;;;-0.03;70.60
55347;BME280;41218;55.700;38.270;2023-02-01T15:56:53;98872.44;;;-0.08;70.77
55347;BME280;41218;55.700;38.270;2023-02-01T16:01:54;98873.69;;;-0.05;70.80
55347;BME280;41218;55.700;38.270;2023-02-01T16:07:03;98864.13;;;-0.11;70.61
55347;BME280;41218;55.700;38.270;2023-02-01T16:17:31;98893.22;;;-0.12;70.52
55347;BME280;41218;55.700;38.270;2023-02-01T16:22:32;98882.00;;;-0.19;70.62
55347;BME280;41218;55.700;38.270;2023-02-01T16:27:32;98878.81;;;-0.21;70.65
55347;BME280;41218;55.700;38.270;2023-02-01T16:32:33;98898.66;;;-0.12;70.70
55347;BME280;41218;55.700;38.270;2023-02-01T16:37:34;98899.75;;;-0.13;70.63
55347;BME280;41218;55.700;38.270;2023-02-01T16:42:37;98893.53;;;-0.22;70.35
55347;BME280;41218;55.700;38.270;2023-02-01T16:47:40;98894.00;;;-0.20;70.46
55347;BME280;41218;55.700;38.270;2023-02-01T16:52:43;98885.69;;;-0.24;70.85
55347;BME280;41218;55.700;38.270;2023-02-01T16:57:44;98894.31;;;-0.22;70.66
55347;BME280;41218;55.700;38.270;2023-02-01T17:02:44;98903.91;;;-0.15;70.81
55347;BME280;41218;55.700;38.270;2023-02-01T17:07:45;98887.63;;;-0.24;70.82
55347;BME280;41218;55.700;38.270;2023-02-01T17:12:46;98896.22;;;-0.13;70.73
55347;BME280;41218;55.700;38.270;2023-02-01T17:17:47;98900.06;;;-0.14;70.65
55347;BME280;41218;55.700;38.270;2023-02-01T17:22:48;98905.50;;;-0.14;70.52
55347;BME280;41218;55.700;38.270;2023-02-01T17:27:49;98900.88;;;-0.14;70.70
55347;BME280;41218;55.700;38.270;2023-02-01T17:32:50;98896.25;;;-0.22;70.75
55347;BME280;41218;55.700;38.270;2023-02-01T17:37:51;98906.28;;;-0.23;70.55
55347;BME280;41218;55.700;38.270;2023-02-01T17:42:52;98898.78;;;-0.26;70.49
55347;BME280;41218;55.700;38.270;2023-02-01T17:47:56;98903.56;;;-0.23;70.77
55347;BME280;41218;55.700;38.270;2023-02-01T17:52:57;98899.91;;;-0.27;70.77
55347;BME280;41218;55.700;38.270;2023-02-01T17:57:58;98894.63;;;-0.32;70.46
55347;BME280;41218;55.700;38.270;2023-02-01T18:02:58;98905.19;;;-0.22;71.06
55347;BME280;41218;55.700;38.270;2023-02-01T18:07:59;98919.25;;;-0.19;70.76
55347;BME280;41218;55.700;38.270;2023-02-01T18:13:03;98903.09;;;-0.25;70.73
55347;BME280;41218;55.700;38.270;2023-02-01T18:18:05;98899.59;;;-0.25;71.00
55347;BME280;41218;55.700;38.270;2023-02-01T18:23:07;98897.34;;;-0.32;70.71
55347;BME280;41218;55.700;38.270;2023-02-01T18:28:15;98904.38;;;-0.31;70.88
55347;BME280;41218;55.700;38.270;2023-02-01T18:33:18;98908.38;;;-0.28;70.93
55347;BME280;41218;55.700;38.270;2023-02-01T18:38:19;98909.66;;;-0.26;70.88
55347;BME280;41218;55.700;38.270;2023-02-01T18:43:20;98902.78;;;-0.32;70.64
55347;BME280;41218;55.700;38.270;2023-02-01T18:48:21;98902.00;;;-0.32;70.80
55347;BME280;41218;55.700;38.270;2023-02-01T18:53:22;98899.59;;;-0.25;70.89
55347;BME280;41218;55.700;38.270;2023-02-01T18:58:26;98896.38;;;-0.27;70.66
55347;BME280;41218;55.700;38.270;2023-02-01T19:03:27;98896.69;;;-0.29;70.80
55347;BME280;41218;55.700;38.270;2023-02-01T19:08:28;98893.84;;;-0.32;70.64
55347;BME280;41218;55.700;38.270;2023-02-01T19:13:28;98879.28;;;-0.45;70.95
55347;BME280;41218;55.700;38.270;2023-02-01T19:18:30;98901.50;;;-0.34;70.97
55347;BME280;41218;55.700;38.270;2023-02-01T19:23:31;98901.50;;;-0.34;70.88
55347;BME280;41218;55.700;38.270;2023-02-01T19:28:31;98890.00;;;-0.40;70.92
55347;BME280;41218;55.700;38.270;2023-02-01T19:33:32;98900.69;;;-0.44;70.80
55347;BME280;41218;55.700;38.270;2023-02-01T19:38:33;98895.88;;;-0.47;71.08
55347;BME280;41218;55.700;38.270;2023-02-01T19:43:33;98886.63;;;-0.54;71.16
55347;BME280;41218;55.700;38.270;2023-02-01T19:48:35;98878.13;;;-0.62;70.91
55347;BME280;41218;55.700;38.270;2023-02-01T19:53:36;98905.31;;;-0.44;71.36
55347;BME280;41218;55.700;38.270;2023-02-01T19:58:36;98897.97;;;-0.44;70.91
55347;BME280;41218;55.700;38.270;2023-02-01T20:03:37;98909.63;;;-0.43;71.04
55347;BME280;41218;55.700;38.270;2023-02-01T20:08:38;98905.31;;;-0.44;71.23
55347;BME280;41218;55.700;38.270;2023-02-01T20:13:38;98908.34;;;-0.46;70.82
55347;BME280;41218;55.700;38.270;2023-02-01T20:18:39;98905.78;;;-0.51;71.12
55347;BME280;41218;55.700;38.270;2023-02-01T20:23:39;98897.63;;;-0.51;71.26
55347;BME280;41218;55.700;38.270;2023-02-01T20:28:40;98912.34;;;-0.43;71.04
55347;BME280;41218;55.700;38.270;2023-02-01T20:33:40;98914.25;;;-0.44;71.00
55347;BME280;41218;55.700;38.270;2023-02-01T20:38:41;98909.44;;;-0.47;71.03
55347;BME280;41218;55.700;38.270;2023-02-01T20:43:41;98912.66;;;-0.45;71.12
55347;BME280;41218;55.700;38.270;2023-02-01T20:48:46;98906.59;;;-0.50;71.26
55347;BME280;41218;55.700;38.270;2023-02-01T20:53:48;98909.63;;;-0.43;71.09
55347;BME280;41218;55.700;38.270;2023-02-01T20:58:51;98906.25;;;-0.49;71.12
55347;BME280;41218;55.700;38.270;2023-02-01T21:03:51;98906.91;;;-0.52;71.18
55347;BME280;41218;55.700;38.270;2023-02-01T21:08:51;98909.78;;;-0.48;71.46
55347;BME280;41218;55.700;38.270;2023-02-01T21:13:52;98898.44;;;-0.50;71.27
55347;BME280;41218;55.700;38.270;2023-02-01T21:18:52;98911.38;;;-0.47;71.30
55347;BME280;41218;55.700;38.270;2023-02-01T21:23:57;98914.09;;;-0.47;71.50
55347;BME280;41218;55.700;38.270;2023-02-01T21:28:58;98892.19;;;-0.59;71.42
55347;BME280;41218;55.700;38.270;2023-02-01T21:33:59;98904.19;;;-0.52;71.74
55347;BME280;41218;55.700;38.270;2023-02-01T21:39:00;98901.31;;;-0.55;71.13
55347;BME280;41218;55.700;38.270;2023-02-01T21:44:03;98896.53;;;-0.58;71.40
55347;BME280;41218;55.700;38.270;2023-02-01T21:49:04;98908.97;;;-0.57;71.43
55347;BME280;41218;55.700;38.270;2023-02-01T21:54:06;98905.75;;;-0.59;71.39
55347;BME280;41218;55.700;38.270;2023-02-01T21:59:07;98887.38;;;-0.71;71.56
55347;BME280;41218;55.700;38.270;2023-02-01T22:04:09;98874.75;;;-0.76;71.47
55347;BME280;41218;55.700;38.270;2023-02-01T22:09:24;98892.19;;;-0.68;71.76
55347;BME280;41218;55.700;38.270;2023-02-01T22:14:25;98870.78;;;-0.78;71.46
55347;BME280;41218;55.700;38.270;2023-02-01T22:19:25;98869.00;;;-0.83;71.69
55347;BME280;41218;55.700;38.270;2023-02-01T22:24:26;98878.91;;;-0.78;71.49
55347;BME280;41218;55.700;38.270;2023-02-01T22:29:26;98889.47;;;-0.68;71.32
55347;BME280;41218;55.700;38.270;2023-02-01T22:34:27;98883.38;;;-0.74;71.58
55347;BME280;41218;55.700;38.270;2023-02-01T22:39:28;98888.03;;;-0.66;71.54
55347;BME280;41218;55.700;38.270;2023-02-01T22:44:28;98888.50;;;-0.64;71.78
55347;BME280;41218;55.700;38.270;2023-02-01T22:49:29;98902.25;;;-0.60;71.48
55347;BME280;41218;55.700;38.270;2023-02-01T22:54:29;98901.94;;;-0.58;71.66
55347;BME280;41218;55.700;38.270;2023-02-01T22:59:30;98902.56;;;-0.62;71.64
55347;BME280;41218;55.700;38.270;2023-02-01T23:04:30;98893.47;;;-0.66;71.35
55347;BME280;41218;55.700;38.270;2023-02-01T23:09:31;98891.53;;;-0.65;71.47
55347;BME280;41218;55.700;38.270;2023-02-01T23:14:31;98885.63;;;-0.67;71.55
55347;BME280;41218;55.700;38.270;2023-02-01T23:19:32;98885.63;;;-0.67;71.33
55347;BME280;41218;55.700;38.270;2023-02-01T23:24:32;98886.59;;;-0.72;71.55
55347;BME280;41218;55.700;38.270;2023-02-01T23:29:33;98893.94;;;-0.72;71.65
55347;BME280;41218;55.700;38.270;2023-02-01T23:34:33;98901.59;;;-0.66;71.52
55347;BME280;41218;55.700;38.270;2023-02-01T23:39:34;98885.00;;;-0.73;71.81
55347;BME280;41218;55.700;38.270;2023-02-01T23:44:35;98888.50;;;-0.72;71.79
55347;BME280;41218;55.700;38.270;2023-02-01T23:49:36;98903.53;;;-0.66;72.02
55347;BME280;41218;55.700;38.270;2023-02-01T23:54:36;98891.41;;;-0.69;71.64
55347;BME280;41218;55.700;38.270;2023-02-01T23:59:37;98896.47;;;-0.67;71.51
